Time;durP1;ratioP1;P1;durP2;ratioP2;P2;SDS_P1;SDS_P2;PMS_P1;PMS_P2;Temp;Humidity;BMP_temperature;BMP_pressure;BME280_temperature;BME280_humidity;BME280_pressure;Samples;Min_cycle;Max_cycle;Signal;HPM_P1;HPM_P2
2023/12/13 00:02:15;;;;;;;28.80;17.00;;;8.40;99.90;;;;;;6302228;22;20169;-78
2023/12/13 00:04:41;;;;;;;27.38;17.13;;;8.40;99.90;;;;;;6301606;22;20018;-79
2023/12/13 00:07:07;;;;;;;29.23;18.23;;;8.40;99.90;;;;;;6302260;22;20049;-79
2023/12/13 00:09:32;;;;;;;27.25;17.58;;;8.40;99.90;;;;;;6303999;22;20018;-79
2023/12/13 00:11:58;;;;;;;31.63;18.00;;;8.40;99.90;;;;;;6304159;22;20023;-79
2023/12/13 00:14:24;;;;;;;30.77;17.45;;;8.40;99.90;;;;;;6302223;22;20022;-79
2023/12/13 00:16:51;;;;;;;30.23;17.42;;;8.40;99.90;;;;;;6302051;22;20057;-78
2023/12/13 00:19:16;;;;;;;29.67;16.52;;;8.40;99.90;;;;;;6302394;22;20021;-79
2023/12/13 00:21:43;;;;;;;29.83;18.48;;;8.40;99.90;;;;;;6303918;22;20410;-79
2023/12/13 00:24:08;;;;;;;27.38;17.13;;;8.40;99.90;;;;;;6302186;22;20019;-79
2023/12/13 00:26:35;;;;;;;25.20;15.38;;;8.40;99.90;;;;;;6302008;22;20509;-79
2023/12/13 00:29:00;;;;;;;29.83;17.85;;;8.30;99.90;;;;;;6302113;22;20023;-79
2023/12/13 00:31:26;;;;;;;26.65;18.00;;;8.40;99.90;;;;;;6301982;22;20046;-79
2023/12/13 00:33:52;;;;;;;32.30;17.90;;;8.40;99.90;;;;;;6301927;22;20061;-79
2023/12/13 00:36:17;;;;;;;27.58;17.27;;;8.30;99.90;;;;;;6303746;22;20026;-79
2023/12/13 00:38:43;;;;;;;29.88;17.92;;;8.30;99.90;;;;;;6301938;22;20015;-80
2023/12/13 00:41:09;;;;;;;29.38;17.50;;;8.20;99.90;;;;;;6301981;22;20015;-78
2023/12/13 00:43:34;;;;;;;26.10;17.00;;;8.30;99.90;;;;;;6301733;22;20079;-79
2023/12/13 00:46:01;;;;;;;27.50;16.02;;;8.20;99.90;;;;;;6301576;22;20344;-79
2023/12/13 00:48:26;;;;;;;28.27;16.65;;;8.20;99.90;;;;;;6303603;22;20331;-79
2023/12/13 00:50:54;;;;;;;27.63;16.30;;;8.20;99.90;;;;;;6275984;22;20050;-79
2023/12/13 00:53:20;;;;;;;27.35;15.43;;;8.20;99.90;;;;;;6301826;22;20115;-80
2023/12/13 00:55:45;;;;;;;24.75;16.05;;;8.20;99.90;;;;;;6301770;22;20046;-79
2023/12/13 00:58:11;;;;;;;23.55;15.68;;;8.20;99.90;;;;;;6303357;22;20339;-81
2023/12/13 01:00:37;;;;;;;23.17;14.95;;;8.20;99.90;;;;;;6301551;22;20142;-79
2023/12/13 01:03:03;;;;;;;22.75;14.65;;;8.10;99.90;;;;;;6303381;22;20030;-80
2023/12/13 01:05:28;;;;;;;23.20;14.52;;;8.10;99.90;;;;;;6303406;22;20023;-79
2023/12/13 01:07:54;;;;;;;24.05;15.07;;;8.10;99.90;;;;;;6301558;22;20390;-81
2023/12/13 01:10:20;;;;;;;21.83;14.10;;;8.20;99.90;;;;;;6301751;22;20076;-80
2023/12/13 01:12:45;;;;;;;22.73;13.55;;;8.20;99.90;;;;;;6303413;22;20019;-80
2023/12/13 01:15:11;;;;;;;25.83;14.27;;;8.20;99.90;;;;;;6303301;22;20011;-79
2023/12/13 01:17:37;;;;;;;19.48;13.00;;;8.10;99.90;;;;;;6301628;22;20340;-80
2023/12/13 01:20:06;;;;;;;17.75;12.70;;;8.10;99.90;;;;;;6303247;22;20070;-81
2023/12/13 01:22:32;;;;;;;20.80;14.00;;;8.10;99.90;;;;;;6303495;22;20008;-80
2023/12/13 01:24:58;;;;;;;22.88;13.45;;;8.10;99.90;;;;;;6303691;22;20027;-81
2023/12/13 01:27:24;;;;;;;21.27;12.73;;;8.10;99.90;;;;;;6303239;22;20034;-80
2023/12/13 01:29:49;;;;;;;19.25;12.05;;;8.10;99.90;;;;;;6301167;22;20073;-80
2023/12/13 01:32:15;;;;;;;20.40;12.43;;;8.10;99.90;;;;;;6301390;22;20019;-80
2023/12/13 01:34:41;;;;;;;19.95;11.80;;;8.20;99.90;;;;;;6301305;22;20355;-80
2023/12/13 01:37:06;;;;;;;18.35;11.68;;;8.10;99.90;;;;;;6301443;22;20125;-81
2023/12/13 01:39:32;;;;;;;18.40;11.70;;;8.10;99.90;;;;;;6301208;22;20011;-81
2023/12/13 01:41:57;;;;;;;14.55;10.63;;;8.10;99.90;;;;;;6301030;22;20161;-81
2023/12/13 01:44:23;;;;;;;17.02;11.63;;;8.10;99.90;;;;;;6301490;22;20159;-80
2023/12/13 01:46:50;;;;;;;16.83;10.77;;;8.10;99.90;;;;;;6303401;22;20015;-80
2023/12/13 01:49:16;;;;;;;15.10;10.40;;;8.10;99.90;;;;;;6303583;22;20018;-80
2023/12/13 01:51:43;;;;;;;17.52;11.02;;;8.10;99.90;;;;;;6303482;22;20376;-80
2023/12/13 01:54:12;;;;;;;15.57;10.77;;;8.10;99.90;;;;;;6301422;22;20023;-80
2023/12/13 01:56:40;;;;;;;14.40;9.80;;;8.20;99.90;;;;;;6302669;22;20033;-80
2023/12/13 01:59:06;;;;;;;13.88;10.05;;;8.20;99.90;;;;;;6303059;22;20046;-81
2023/12/13 02:01:32;;;;;;;15.80;10.35;;;8.20;99.90;;;;;;6301437;22;20015;-80
2023/12/13 02:03:58;;;;;;;15.73;9.45;;;8.10;99.90;;;;;;6301503;22;20019;-79
2023/12/13 02:06:24;;;;;;;13.57;8.75;;;8.10;99.90;;;;;;6301523;22;20019;-79
2023/12/13 02:08:49;;;;;;;15.25;9.18;;;8.10;99.90;;;;;;6301624;22;20020;-80
2023/12/13 02:11:15;;;;;;;10.90;8.48;;;8.10;99.90;;;;;;6301291;22;20038;-78
2023/12/13 02:13:42;;;;;;;13.15;8.48;;;8.10;99.90;;;;;;6301256;22;20026;-78
2023/12/13 02:16:08;;;;;;;13.18;8.82;;;8.10;99.90;;;;;;6301216;22;20025;-78
2023/12/13 02:18:33;;;;;;;12.48;7.03;;;8.10;99.90;;;;;;6301267;22;20049;-79
2023/12/13 02:20:59;;;;;;;14.05;8.00;;;8.20;99.90;;;;;;6303100;22;20034;-79
2023/12/13 02:23:25;;;;;;;11.73;8.57;;;8.10;99.90;;;;;;6301056;22;20023;-80
2023/12/13 02:26:00;;;;;;;12.75;8.50;;;8.20;99.90;;;;;;6300539;22;20023;-78
2023/12/13 02:28:27;;;;;;;12.10;8.25;;;8.10;99.90;;;;;;6301108;22;20405;-79
2023/12/13 02:30:54;;;;;;;11.50;8.25;;;8.10;99.90;;;;;;6300987;22;20343;-78
2023/12/13 02:33:27;;;;;;;13.10;7.90;;;8.10;99.90;;;;;;6300966;22;20015;-79
2023/12/13 02:35:53;;;;;;;;;;;8.10;99.90;;;;;;6301429;22;20015;-79
2023/12/13 02:38:19;;;;;;;11.57;7.68;;;8.10;99.90;;;;;;6301130;22;19980;-79
2023/12/13 02:40:44;;;;;;;12.10;8.50;;;8.00;99.90;;;;;;6301068;22;20428;-79
2023/12/13 02:43:10;;;;;;;10.68;8.18;;;8.10;99.90;;;;;;6301253;22;20084;-79
2023/12/13 02:45:36;;;;;;;12.90;8.05;;;8.00;99.90;;;;;;6301248;22;20411;-79
2023/12/13 02:48:01;;;;;;;12.40;8.50;;;8.10;99.90;;;;;;6301044;22;20019;-79
2023/12/13 02:50:27;;;;;;;13.80;8.93;;;8.00;99.90;;;;;;6303025;22;20050;-79
2023/12/13 02:52:53;;;;;;;11.27;8.07;;;8.10;99.90;;;;;;6302993;22;20491;-80
2023/12/13 02:55:18;;;;;;;15.20;8.95;;;8.10;99.90;;;;;;6300544;22;20023;-79
2023/12/13 02:57:44;;;;;;;9.45;7.90;;;8.10;99.90;;;;;;6302645;22;20098;-80
2023/12/13 03:00:10;;;;;;;13.23;9.10;;;8.10;99.90;;;;;;6302781;22;20020;-79
2023/12/13 03:02:37;;;;;;;14.23;8.38;;;8.10;99.90;;;;;;6301186;22;20015;-80
2023/12/13 03:05:03;;;;;;;14.43;9.15;;;8.10;99.90;;;;;;6303676;22;20521;-80
2023/12/13 03:07:30;;;;;;;12.85;9.02;;;8.10;99.90;;;;;;6304373;22;20104;-80
2023/12/13 03:09:56;;;;;;;11.32;8.32;;;8.10;99.90;;;;;;6305522;22;20459;-79
2023/12/13 03:12:22;;;;;;;11.68;8.55;;;8.00;99.90;;;;;;6302928;22;20011;-79
2023/12/13 03:14:47;;;;;;;15.80;9.52;;;8.10;99.90;;;;;;6302864;22;20042;-80
2023/12/13 03:17:13;;;;;;;12.55;9.15;;;8.10;99.90;;;;;;6302801;22;20088;-80
2023/12/13 03:19:39;;;;;;;15.07;9.55;;;8.10;99.90;;;;;;6304995;22;20015;-80
2023/12/13 03:22:05;;;;;;;13.55;9.75;;;8.10;99.90;;;;;;6304851;22;20079;-80
2023/12/13 03:24:31;;;;;;;14.55;9.00;;;8.10;99.90;;;;;;6302564;22;20023;-80
2023/12/13 03:26:56;;;;;;;16.45;10.00;;;8.10;99.90;;;;;;6302367;22;20026;-80
2023/12/13 03:29:22;;;;;;;15.98;9.65;;;8.10;99.90;;;;;;6302492;22;20084;-81
2023/12/13 03:31:48;;;;;;;15.27;9.80;;;8.10;99.90;;;;;;6304441;22;20018;-80
2023/12/13 03:34:14;;;;;;;13.05;9.68;;;8.10;99.90;;;;;;6302367;22;20042;-80
2023/12/13 03:36:40;;;;;;;13.48;9.50;;;8.10;99.90;;;;;;6304257;22;20011;-80
2023/12/13 03:39:07;;;;;;;15.85;9.95;;;8.10;99.90;;;;;;6302292;22;20011;-80
2023/12/13 03:41:33;;;;;;;15.93;9.98;;;8.10;99.90;;;;;;6302800;22;20018;-81
2023/12/13 03:43:59;;;;;;;15.95;11.13;;;8.10;99.90;;;;;;6302458;22;20348;-80
2023/12/13 03:46:25;;;;;;;16.98;10.65;;;8.20;99.90;;;;;;6302629;22;20023;-80
2023/12/13 03:48:51;;;;;;;16.65;11.38;;;8.10;99.90;;;;;;6302750;22;20453;-80
2023/12/13 03:51:16;;;;;;;20.00;11.50;;;8.20;99.90;;;;;;6304398;22;20457;-80
2023/12/13 03:53:42;;;;;;;15.43;10.13;;;8.10;99.90;;;;;;6302499;22;20068;-81
2023/12/13 03:56:09;;;;;;;18.00;11.23;;;8.20;99.90;;;;;;6302528;22;20708;-80
2023/12/13 03:58:36;;;;;;;15.52;10.40;;;8.10;99.90;;;;;;6304544;22;20382;-81
2023/12/13 04:01:01;;;;;;;16.00;11.73;;;8.10;99.90;;;;;;6304841;22;20007;-80
2023/12/13 04:03:27;;;;;;;16.73;10.73;;;8.20;99.90;;;;;;6304575;22;20022;-81
2023/12/13 04:05:53;;;;;;;16.20;11.57;;;8.10;99.90;;;;;;6302567;22;20357;-79
2023/12/13 04:08:19;;;;;;;17.52;11.05;;;8.10;99.90;;;;;;6302359;22;20443;-80
2023/12/13 04:10:44;;;;;;;16.48;10.90;;;8.20;99.90;;;;;;6302480;22;20096;-79
2023/12/13 04:13:10;;;;;;;17.85;10.55;;;8.10;99.90;;;;;;6302596;22;20504;-81
2023/12/13 04:15:36;;;;;;;20.88;11.02;;;8.20;99.90;;;;;;6302714;22;20058;-79
2023/12/13 04:18:01;;;;;;;21.30;11.88;;;8.10;99.90;;;;;;6302173;22;20439;-81
2023/12/13 04:20:27;;;;;;;17.48;11.55;;;8.10;99.90;;;;;;6302228;22;20335;-80
2023/12/13 04:22:53;;;;;;;18.10;10.75;;;8.20;99.90;;;;;;6301831;22;20019;-79
2023/12/13 04:25:18;;;;;;;14.57;10.13;;;8.10;99.90;;;;;;6301933;22;20019;-78
2023/12/13 04:27:47;;;;;;;15.35;11.15;;;8.10;99.90;;;;;;6302613;22;20119;-80
2023/12/13 04:30:13;;;;;;;17.48;10.95;;;8.20;99.90;;;;;;6302170;22;20015;-80
2023/12/13 04:32:39;;;;;;;16.73;10.70;;;8.20;99.90;;;;;;6302139;22;20015;-80
2023/12/13 04:35:06;;;;;;;14.75;10.07;;;8.20;99.90;;;;;;6301997;22;20086;-80
2023/12/13 04:37:32;;;;;;;11.32;9.57;;;8.20;99.90;;;;;;6301907;22;20061;-81
2023/12/13 04:39:58;;;;;;;18.17;10.38;;;8.20;99.90;;;;;;6302048;22;20023;-82
2023/12/13 04:42:24;;;;;;;16.70;10.30;;;8.20;99.90;;;;;;6304072;22;20011;-81
2023/12/13 04:44:50;;;;;;;15.32;11.35;;;8.20;99.90;;;;;;6304125;22;20149;-81
2023/12/13 04:47:16;;;;;;;15.73;10.80;;;8.20;99.90;;;;;;6301983;22;20069;-80
2023/12/13 04:49:41;;;;;;;16.75;10.35;;;8.20;99.90;;;;;;6303515;22;20133;-80
2023/12/13 04:52:07;;;;;;;14.82;10.10;;;8.20;99.90;;;;;;6303772;22;20089;-79
2023/12/13 04:54:35;;;;;;;17.63;11.20;;;8.10;99.90;;;;;;6303799;22;20098;-80
2023/12/13 04:57:01;;;;;;;15.52;11.10;;;8.20;99.90;;;;;;6303689;22;20050;-80
2023/12/13 04:59:27;;;;;;;16.40;11.02;;;8.20;99.90;;;;;;6302030;22;20015;-79
2023/12/13 05:01:52;;;;;;;18.10;11.07;;;8.20;99.90;;;;;;6303513;22;20056;-79
2023/12/13 05:04:18;;;;;;;16.98;10.75;;;8.20;99.90;;;;;;6303892;22;20086;-79
2023/12/13 05:06:44;;;;;;;15.27;10.48;;;8.10;99.90;;;;;;6303657;22;20015;-78
2023/12/13 05:09:09;;;;;;;15.57;10.65;;;8.20;99.90;;;;;;6303354;22;20015;-78
2023/12/13 05:11:35;;;;;;;15.07;11.43;;;8.20;99.90;;;;;;6301781;22;20022;-79
2023/12/13 05:14:01;;;;;;;16.40;10.65;;;8.10;99.90;;;;;;6303588;22;20015;-79
2023/12/13 05:16:26;;;;;;;18.60;10.80;;;8.20;99.90;;;;;;6301750;22;20015;-78
2023/12/13 05:18:52;;;;;;;14.57;11.23;;;8.20;99.90;;;;;;6301624;22;20038;-78
2023/12/13 05:21:18;;;;;;;16.85;10.98;;;8.20;99.90;;;;;;6303211;22;20018;-78
2023/12/13 05:23:43;;;;;;;19.60;10.90;;;8.20;99.90;;;;;;6303637;22;20081;-79
2023/12/13 05:26:09;;;;;;;16.00;10.75;;;8.20;99.90;;;;;;6303130;22;20027;-78
2023/12/13 05:28:35;;;;;;;18.55;10.95;;;8.20;99.90;;;;;;6301611;22;20046;-79
2023/12/13 05:31:00;;;;;;;19.10;10.43;;;8.20;99.90;;;;;;6303224;22;20125;-78
2023/12/13 05:33:26;;;;;;;21.48;10.00;;;8.30;99.90;;;;;;6303756;22;20071;-80
2023/12/13 05:35:52;;;;;;;15.23;10.82;;;8.20;99.90;;;;;;6302836;22;20015;-79
2023/12/13 05:38:18;;;;;;;15.25;10.57;;;8.20;99.90;;;;;;6303523;22;20022;-79
2023/12/13 05:40:43;;;;;;;15.02;11.13;;;8.30;99.90;;;;;;6301251;22;20094;-79
2023/12/13 05:43:09;;;;;;;15.93;12.05;;;8.20;99.90;;;;;;6301234;22;20018;-79
2023/12/13 05:45:34;;;;;;;18.15;11.13;;;8.20;99.90;;;;;;6303106;22;20022;-79
2023/12/13 05:48:00;;;;;;;18.88;11.13;;;8.20;99.90;;;;;;6301222;22;20068;-80
2023/12/13 05:50:26;;;;;;;17.45;10.60;;;8.20;99.90;;;;;;6302962;22;20019;-79
2023/12/13 05:52:51;;;;;;;20.02;11.00;;;8.10;99.90;;;;;;6301122;22;20015;-80
2023/12/13 05:55:17;;;;;;;14.48;9.93;;;8.10;99.90;;;;;;6301064;22;20030;-80
2023/12/13 05:57:43;;;;;;;15.90;10.32;;;8.10;99.90;;;;;;6301162;22;20022;-80
2023/12/13 06:00:09;;;;;;;17.38;10.32;;;8.10;99.90;;;;;;6301602;22;20022;-80
2023/12/13 06:02:35;;;;;;;15.32;10.85;;;8.10;99.90;;;;;;6303323;22;20011;-80
2023/12/13 06:05:04;;;;;;;14.55;10.85;;;8.10;99.90;;;;;;6302576;22;20054;-79
2023/12/13 06:07:30;;;;;;;18.33;11.10;;;8.10;99.90;;;;;;6300962;22;20385;-80
2023/12/13 06:09:56;;;;;;;16.55;10.73;;;8.10;99.90;;;;;;6301173;22;20020;-80
2023/12/13 06:12:21;;;;;;;15.25;10.98;;;8.10;99.90;;;;;;6301041;22;20029;-79
2023/12/13 06:14:47;;;;;;;14.52;10.85;;;8.10;99.90;;;;;;6302885;22;20023;-80
2023/12/13 06:17:13;;;;;;;19.05;11.00;;;8.10;99.90;;;;;;6301069;22;20015;-79
2023/12/13 06:19:39;;;;;;;16.17;10.75;;;8.10;99.90;;;;;;6300761;22;20050;-81
2023/12/13 06:22:07;;;;;;;15.43;10.50;;;8.10;99.90;;;;;;6300962;22;20016;-80
2023/12/13 06:24:33;;;;;;;15.75;11.07;;;8.10;99.90;;;;;;6300927;22;20049;-80
2023/12/13 06:26:59;;;;;;;15.75;10.90;;;8.10;99.90;;;;;;6300692;22;20023;-79
2023/12/13 06:29:25;;;;;;;18.60;10.23;;;8.10;99.90;;;;;;6301356;22;20092;-80
2023/12/13 06:31:50;;;;;;;15.93;10.50;;;8.10;99.90;;;;;;6300964;22;20066;-80
2023/12/13 06:34:16;;;;;;;19.58;11.57;;;8.10;99.90;;;;;;6300493;22;20049;-80
2023/12/13 06:36:42;;;;;;;15.23;10.45;;;8.10;99.90;;;;;;6300774;22;20011;-81
2023/12/13 06:39:11;;;;;;;16.30;10.90;;;8.20;99.90;;;;;;6300967;22;20055;-82
2023/12/13 06:41:40;;;;;;;14.13;10.77;;;8.10;99.90;;;;;;6300698;22;20011;-82
2023/12/13 06:44:06;;;;;;;17.15;11.13;;;8.10;99.90;;;;;;6300828;22;20363;-81
2023/12/13 06:46:32;;;;;;;20.50;11.10;;;8.10;99.90;;;;;;6300706;22;20019;-81
2023/12/13 06:48:58;;;;;;;17.55;11.20;;;8.10;99.90;;;;;;6302558;22;20054;-82
2023/12/13 06:51:24;;;;;;;16.10;11.50;;;8.10;99.90;;;;;;6302637;22;20015;-81
2023/12/13 06:53:50;;;;;;;22.27;10.68;;;8.10;99.90;;;;;;6301051;22;20537;-81
2023/12/13 06:56:16;;;;;;;19.67;11.07;;;8.10;99.90;;;;;;6301033;22;20352;-81
2023/12/13 06:58:42;;;;;;;17.52;10.05;;;8.10;99.90;;;;;;6300998;22;20133;-81
2023/12/13 07:01:08;;;;;;;15.85;10.00;;;8.10;99.90;;;;;;6301073;22;20118;-82
2023/12/13 07:03:34;;;;;;;17.65;11.05;;;8.10;99.90;;;;;;6301579;22;20026;-83
2023/12/13 07:06:00;;;;;;;18.55;10.55;;;8.10;99.90;;;;;;6302992;22;20015;-83
2023/12/13 07:08:26;;;;;;;17.73;10.45;;;8.10;99.90;;;;;;6301127;22;20347;-83
2023/12/13 07:10:52;;;;;;;17.77;10.88;;;8.20;99.90;;;;;;6303126;22;20011;-84
2023/12/13 07:13:17;;;;;;;18.55;10.13;;;8.10;99.90;;;;;;6301126;22;20023;-84
2023/12/13 07:15:43;;;;;;;15.32;10.23;;;8.10;99.90;;;;;;6300651;22;20090;-82
2023/12/13 07:18:09;;;;;;;17.25;10.80;;;8.20;99.90;;;;;;6305357;22;20061;-84
2023/12/13 07:20:35;;;;;;;19.08;10.93;;;8.20;99.90;;;;;;6309046;22;20016;-83
2023/12/13 07:23:01;;;;;;;17.15;10.20;;;8.20;99.90;;;;;;6308660;22;20015;-84
2023/12/13 07:25:26;;;;;;;12.95;9.38;;;8.10;99.90;;;;;;6309240;22;20354;-83
2023/12/13 07:27:52;;;;;;;20.65;10.02;;;8.10;99.90;;;;;;6304509;22;20015;-82
2023/12/13 07:30:18;;;;;;;17.08;10.30;;;8.20;99.90;;;;;;6300739;22;20039;-83
2023/12/13 07:32:44;;;;;;;17.67;10.93;;;8.20;99.90;;;;;;6300779;22;20026;-83
2023/12/13 07:35:10;;;;;;;14.93;9.70;;;8.10;99.90;;;;;;6302714;22;20097;-82
2023/12/13 07:37:36;;;;;;;17.00;11.43;;;8.20;99.90;;;;;;6300870;22;20015;-83
2023/12/13 07:40:06;;;;;;;15.38;9.55;;;8.20;99.90;;;;;;6300718;22;20011;-83
2023/12/13 07:42:33;;;;;;;22.67;10.63;;;8.20;99.90;;;;;;6303095;22;20049;-84
2023/12/13 07:44:59;;;;;;;18.65;9.98;;;8.20;99.90;;;;;;6302351;22;20072;-84
2023/12/13 07:47:25;;;;;;;17.85;11.52;;;8.20;99.90;;;;;;6300844;22;20023;-85
2023/12/13 07:49:51;;;;;;;17.65;10.35;;;8.20;99.90;;;;;;6302910;22;20489;-83
2023/12/13 07:52:17;;;;;;;20.85;11.32;;;8.20;99.90;;;;;;6300828;22;20046;-85
2023/12/13 07:54:43;;;;;;;17.00;10.48;;;8.20;99.90;;;;;;6304095;22;20437;-83
2023/12/13 07:57:09;;;;;;;18.25;10.43;;;8.20;99.90;;;;;;6304846;22;20033;-84
2023/12/13 07:59:35;;;;;;;15.88;10.15;;;8.20;99.90;;;;;;6303129;22;20449;-83
2023/12/13 08:02:01;;;;;;;23.63;10.95;;;8.20;99.90;;;;;;6303021;22;20015;-82
2023/12/13 08:04:27;;;;;;;19.50;11.20;;;8.20;99.90;;;;;;6303231;22;20022;-84
2023/12/13 08:06:53;;;;;;;22.38;12.18;;;8.30;99.90;;;;;;6304641;22;20015;-85
2023/12/13 08:09:19;;;;;;;22.05;11.40;;;8.30;99.90;;;;;;6303004;22;20023;-84
2023/12/13 08:11:46;;;;;;;23.73;12.13;;;8.30;99.90;;;;;;6303629;22;20053;-84
2023/12/13 08:14:16;;;;;;;21.17;11.75;;;8.30;99.90;;;;;;6304289;22;20011;-84
2023/12/13 08:16:42;;;;;;;21.85;12.75;;;8.30;99.90;;;;;;6302835;22;20011;-84
2023/12/13 08:19:08;;;;;;;17.85;11.75;;;8.30;99.90;;;;;;6302472;22;20042;-85
2023/12/13 08:21:40;;;;;;;22.85;13.23;;;8.30;99.90;;;;;;6302524;22;20015;-82
2023/12/13 08:24:10;;;;;;;19.95;11.38;;;8.40;99.90;;;;;;6304518;22;20062;-82
2023/12/13 08:26:35;;;;;;;20.42;11.93;;;8.30;99.90;;;;;;6304208;22;20019;-82
2023/12/13 08:29:01;;;;;;;23.85;13.07;;;8.30;99.90;;;;;;6304107;22;20072;-82
2023/12/13 08:31:27;;;;;;;27.90;12.15;;;8.40;99.90;;;;;;6302492;22;20449;-81
2023/12/13 08:33:52;;;;;;;24.13;12.38;;;8.40;99.90;;;;;;6304196;22;20017;-78
2023/12/13 08:36:18;;;;;;;20.23;12.20;;;8.50;99.90;;;;;;6301639;22;20026;-79
2023/12/13 08:38:45;;;;;;;22.65;11.93;;;8.50;99.90;;;;;;6300174;22;20050;-80
2023/12/13 08:41:12;;;;;;;19.92;11.88;;;8.40;99.90;;;;;;6300836;22;20452;-79
2023/12/13 08:43:38;;;;;;;19.67;11.85;;;8.40;99.90;;;;;;6301645;22;20355;-82
2023/12/13 08:46:04;;;;;;;24.55;12.38;;;8.40;99.90;;;;;;6301790;22;20448;-80
2023/12/13 08:48:30;;;;;;;20.70;12.65;;;8.40;99.90;;;;;;6301707;22;20527;-79
2023/12/13 08:50:57;;;;;;;21.45;12.25;;;8.40;99.90;;;;;;6305196;22;20015;-79
2023/12/13 08:53:24;;;;;;;22.73;13.43;;;8.40;99.90;;;;;;6302060;22;20018;-79
2023/12/13 08:55:49;;;;;;;20.48;11.95;;;8.40;99.90;;;;;;6301753;22;20403;-79
2023/12/13 08:58:15;;;;;;;21.50;11.80;;;8.40;99.90;;;;;;6301373;22;20043;-80
2023/12/13 09:00:41;;;;;;;16.27;10.75;;;8.40;99.90;;;;;;6303831;22;20011;-82
2023/12/13 09:03:08;;;;;;;21.08;11.63;;;8.40;99.90;;;;;;6301683;22;20046;-82
2023/12/13 09:05:35;;;;;;;24.27;11.50;;;8.40;99.90;;;;;;6301775;22;20019;-81
2023/12/13 09:08:00;;;;;;;23.40;11.30;;;8.40;99.90;;;;;;6301792;22;20023;-78
2023/12/13 09:10:26;;;;;;;17.33;11.43;;;8.50;99.90;;;;;;6302158;22;20097;-82
2023/12/13 09:12:52;;;;;;;18.92;11.13;;;8.50;99.90;;;;;;6303295;22;20018;-84
2023/12/13 09:15:18;;;;;;;23.02;11.38;;;8.50;99.90;;;;;;6304228;22;20022;-78
2023/12/13 09:17:47;;;;;;;16.17;10.88;;;8.50;99.90;;;;;;6303573;22;20047;-77
2023/12/13 09:20:15;;;;;;;15.25;11.02;;;8.50;99.90;;;;;;6303889;22;20386;-82
2023/12/13 09:22:42;;;;;;;18.55;10.45;;;8.50;99.90;;;;;;6301475;22;20011;-81
2023/12/13 09:25:09;;;;;;;17.25;10.70;;;8.50;99.90;;;;;;6301801;22;20022;-78
2023/12/13 09:27:35;;;;;;;16.75;10.68;;;8.50;99.90;;;;;;6301369;22;20034;-82
2023/12/13 09:30:02;;;;;;;16.63;11.23;;;8.60;99.90;;;;;;6300528;22;20026;-80
2023/12/13 09:32:28;;;;;;;15.52;10.93;;;8.60;99.90;;;;;;6300736;22;20419;-81
2023/12/13 09:34:55;;;;;;;18.27;11.13;;;8.60;99.90;;;;;;6301226;22;20034;-79
2023/12/13 09:37:21;;;;;;;16.40;10.30;;;8.60;99.90;;;;;;6299339;22;20019;-79
2023/12/13 09:39:46;;;;;;;15.35;10.05;;;8.70;99.90;;;;;;6300956;22;20044;-80
2023/12/13 09:42:13;;;;;;;20.35;11.10;;;8.70;99.90;;;;;;6302817;22;20015;-79
2023/12/13 09:44:40;;;;;;;16.35;11.25;;;8.70;99.90;;;;;;6301109;22;20023;-80
2023/12/13 09:47:07;;;;;;;14.88;10.23;;;8.70;99.90;;;;;;6301379;22;20019;-82
2023/12/13 09:49:36;;;;;;;19.27;10.27;;;8.70;99.90;;;;;;6301161;22;20076;-81
2023/12/13 09:52:04;;;;;;;13.90;10.02;;;8.70;99.90;;;;;;6302829;22;20011;-80
2023/12/13 09:54:31;;;;;;;15.57;10.40;;;8.70;99.90;;;;;;6300875;22;20019;-80
2023/12/13 09:56:57;;;;;;;19.27;10.85;;;8.70;99.90;;;;;;6300094;22;20098;-80
2023/12/13 09:59:24;;;;;;;19.13;9.88;;;8.70;99.90;;;;;;6300984;22;20149;-80
2023/12/13 10:01:50;;;;;;;15.43;9.85;;;8.70;99.90;;;;;;6300998;22;20019;-84
2023/12/13 10:04:16;;;;;;;20.05;11.25;;;8.80;99.90;;;;;;6300571;22;20072;-81
2023/12/13 10:06:41;;;;;;;17.08;10.95;;;8.80;99.90;;;;;;6303069;22;20007;-82
2023/12/13 10:09:07;;;;;;;24.00;11.70;;;8.80;99.90;;;;;;6302986;22;20094;-82
2023/12/13 10:11:34;;;;;;;20.48;11.20;;;8.80;99.90;;;;;;6303422;22;20366;-82
2023/12/13 10:13:59;;;;;;;20.40;10.57;;;8.80;99.90;;;;;;6303385;22;20038;-81
2023/12/13 10:16:28;;;;;;;15.13;11.63;;;8.80;99.90;;;;;;6302518;22;20019;-82
2023/12/13 10:18:54;;;;;;;19.25;10.52;;;8.80;99.90;;;;;;6303327;22;20011;-82
2023/12/13 10:21:20;;;;;;;15.82;10.23;;;8.90;99.90;;;;;;6303154;22;20390;-79
2023/12/13 10:23:46;;;;;;;19.35;10.40;;;8.90;99.90;;;;;;6302497;22;20018;-80
2023/12/13 10:26:12;;;;;;;18.05;10.85;;;8.90;99.90;;;;;;6299447;22;20023;-79
2023/12/13 10:28:38;;;;;;;15.40;9.70;;;8.90;99.90;;;;;;6300257;22;20102;-81
2023/12/13 10:31:04;;;;;;;17.60;10.45;;;8.90;99.90;;;;;;6300840;22;20061;-79
2023/12/13 10:33:30;;;;;;;17.45;10.52;;;8.90;99.90;;;;;;6302175;22;20031;-80
2023/12/13 10:35:58;;;;;;;21.27;10.18;;;8.90;99.90;;;;;;6300800;22;20054;-79
2023/12/13 10:38:26;;;;;;;18.05;10.48;;;8.90;99.90;;;;;;6300726;22;20019;-81
2023/12/13 10:40:52;;;;;;;17.63;10.65;;;8.90;99.90;;;;;;6300886;22;20019;-81
2023/12/13 10:43:19;;;;;;;18.85;11.15;;;8.90;99.90;;;;;;6300956;22;20011;-82
2023/12/13 10:45:55;;;;;;;15.80;11.18;;;8.90;99.90;;;;;;6301249;22;20023;-82
2023/12/13 10:48:27;;;;;;;18.35;11.48;;;8.90;99.90;;;;;;6301072;22;20019;-81
2023/12/13 10:50:55;;;;;;;19.33;12.10;;;8.90;99.90;;;;;;6302601;22;20024;-81
2023/12/13 10:53:24;;;;;;;18.45;12.07;;;9.00;99.90;;;;;;6302186;22;20242;-80
2023/12/13 10:55:51;;;;;;;19.38;11.50;;;9.00;99.90;;;;;;6302563;22;20023;-80
2023/12/13 10:58:17;;;;;;;22.55;11.35;;;9.00;99.90;;;;;;6300438;22;20022;-80
2023/12/13 11:00:43;;;;;;;17.02;11.55;;;9.00;99.90;;;;;;6300642;22;20086;-78
2023/12/13 11:03:15;;;;;;;23.23;11.90;;;9.00;99.90;;;;;;6300990;22;20410;-82
2023/12/13 11:05:41;;;;;;;18.20;11.52;;;9.00;99.90;;;;;;6302709;22;20395;-80
2023/12/13 11:08:16;;;;;;;18.50;11.38;;;9.10;99.90;;;;;;6300937;22;20039;-82
2023/12/13 11:11:09;;;;;;;14.57;9.68;;;9.10;99.90;;;;;;6301142;22;20043;-80
2023/12/13 11:13:53;;;;;;;19.88;11.55;;;9.20;99.90;;;;;;6303111;22;20022;-78
2023/12/13 11:16:20;;;;;;;20.55;11.07;;;9.10;99.90;;;;;;6300950;22;20015;-78
2023/12/13 11:18:48;;;;;;;18.95;12.13;;;9.10;99.90;;;;;;6303184;22;20011;-78
2023/12/13 11:21:25;;;;;;;19.58;11.35;;;9.10;99.90;;;;;;6301094;22;20093;-78
2023/12/13 11:23:52;;;;;;;17.60;10.63;;;9.10;99.90;;;;;;6300839;22;20133;-80
2023/12/13 11:26:24;;;;;;;22.40;11.93;;;9.10;99.90;;;;;;6300894;22;20090;-80
2023/12/13 11:28:52;;;;;;;14.43;11.25;;;9.20;99.90;;;;;;6304544;22;20096;-81
2023/12/13 11:31:24;;;;;;;19.70;11.55;;;9.20;99.90;;;;;;6305332;22;20007;-81
2023/12/13 11:33:54;;;;;;;22.95;13.80;;;9.20;99.90;;;;;;6303286;22;20018;-78
2023/12/13 11:36:25;;;;;;;18.83;12.57;;;9.30;99.90;;;;;;6305079;22;20023;-77
2023/12/13 11:38:56;;;;;;;22.90;12.73;;;9.30;99.90;;;;;;6304471;22;20046;-84
2023/12/13 11:41:22;;;;;;;18.15;12.52;;;9.30;99.90;;;;;;6305452;22;20016;-84
2023/12/13 11:43:48;;;;;;;20.30;13.48;;;9.30;99.90;;;;;;6305631;22;20026;-84
2023/12/13 11:46:14;;;;;;;25.33;12.68;;;9.40;99.90;;;;;;6305992;22;20092;-84
2023/12/13 11:48:43;;;;;;;22.05;13.95;;;9.30;99.90;;;;;;6303167;22;20015;-82
2023/12/13 11:51:09;;;;;;;23.08;12.70;;;9.30;99.90;;;;;;6302502;22;20343;-81
2023/12/13 11:53:35;;;;;;;26.35;14.25;;;9.40;99.90;;;;;;6303616;22;20011;-81
2023/12/13 11:56:01;;;;;;;21.17;12.98;;;9.40;99.90;;;;;;6302919;22;20134;-77
2023/12/13 11:58:28;;;;;;;23.67;13.95;;;9.40;99.90;;;;;;6304585;22;20417;-79
2023/12/13 12:00:53;;;;;;;17.70;13.13;;;9.40;99.90;;;;;;6304193;22;20019;-79
2023/12/13 12:03:19;;;;;;;28.65;13.32;;;9.50;99.90;;;;;;6304916;22;20019;-79
2023/12/13 12:05:47;;;;;;;27.00;13.48;;;9.50;99.90;;;;;;6302766;22;20339;-78
2023/12/13 12:08:12;;;;;;;24.02;14.68;;;9.50;99.90;;;;;;6302454;22;20011;-78
2023/12/13 12:10:40;;;;;;;24.45;15.27;;;9.50;99.90;;;;;;6302546;22;20022;-77
2023/12/13 12:13:05;;;;;;;21.48;14.55;;;9.50;99.90;;;;;;6302436;22;20078;-76
2023/12/13 12:15:31;;;;;;;27.30;14.75;;;9.50;99.90;;;;;;6304074;22;20019;-78
2023/12/13 12:18:00;;;;;;;24.63;14.40;;;9.50;99.90;;;;;;6302002;22;20023;-78
2023/12/13 12:20:26;;;;;;;25.45;15.30;;;9.50;99.90;;;;;;6303772;22;20016;-80
2023/12/13 12:22:52;;;;;;;24.08;15.50;;;9.50;99.90;;;;;;6302303;22;20335;-81
2023/12/13 12:25:20;;;;;;;30.17;14.75;;;9.40;99.90;;;;;;6302257;22;20043;-80
2023/12/13 12:27:49;;;;;;;18.92;12.13;;;9.50;99.90;;;;;;6304166;22;20015;-77
2023/12/13 12:30:18;;;;;;;23.00;14.88;;;9.60;99.90;;;;;;6304766;22;20017;-83
2023/12/13 12:32:45;;;;;;;24.48;15.77;;;9.60;99.90;;;;;;6302528;22;20019;-80
2023/12/13 12:35:10;;;;;;;21.15;14.38;;;9.60;99.90;;;;;;6301972;22;20019;-80